Time;durP1;ratioP1;P1;durP2;ratioP2;P2;SDS_P1;SDS_P2;PMS_P1;PMS_P2;Temp;Humidity;BMP_temperature;BMP_pressure;BME280_temperature;BME280_humidity;BME280_pressure;Samples;Min_cycle;Max_cycle;Signal;HPM_P1;HPM_P2
2023/10/15 00:01:33;;;;;;;1.60;1.50;;;;;;;14.89;74.14;99147.97;5091347;28;20210;-70
2023/10/15 00:04:02;;;;;;;2.03;1.93;;;;;;;14.89;74.33;99145.38;5091748;28;20586;-70
2023/10/15 00:06:29;;;;;;;3.33;1.57;;;;;;;14.80;74.31;99124.38;5091257;28;20272;-70
2023/10/15 00:08:57;;;;;;;1.67;1.60;;;;;;;14.91;74.71;99138.38;5089606;28;20198;-70
2023/10/15 00:11:25;;;;;;;1.93;1.83;;;;;;;14.93;74.91;99139.13;5090458;28;20195;-70
2023/10/15 00:13:52;;;;;;;1.93;1.83;;;;;;;14.91;75.18;99135.81;5090951;28;20217;-70
2023/10/15 00:16:19;;;;;;;3.23;2.10;;;;;;;14.90;75.54;99139.28;5091282;28;20208;-70
2023/10/15 00:18:46;;;;;;;1.47;1.33;;;;;;;14.87;75.20;99129.13;5090371;28;20630;-70
2023/10/15 00:21:13;;;;;;;1.90;1.80;;;;;;;14.76;76.11;99126.28;5090642;28;20267;-70
2023/10/15 00:23:42;;;;;;;1.77;1.73;;;;;;;14.71;76.34;99126.50;5091339;28;20241;-70
2023/10/15 00:26:11;;;;;;;1.57;1.47;;;;;;;14.71;76.32;99130.84;5090225;28;20196;-70
2023/10/15 00:28:41;;;;;;;1.70;1.60;;;;;;;14.66;76.80;99125.94;5090070;28;20199;-70
2023/10/15 00:31:13;;;;;;;2.30;2.13;;;;;;;14.63;76.54;99118.34;5087766;28;20339;-70
2023/10/15 00:33:42;;;;;;;1.77;1.77;;;;;;;14.63;76.72;99110.59;5091129;28;20688;-70
2023/10/15 00:36:12;;;;;;;4.27;1.60;;;;;;;14.47;76.84;99098.56;5091158;28;20294;-70
2023/10/15 00:38:39;;;;;;;1.50;1.50;;;;;;;14.54;76.89;99111.06;5092997;28;20196;-70
2023/10/15 00:41:08;;;;;;;1.50;1.50;;;;;;;14.54;77.57;99123.13;5090904;28;20229;-70
2023/10/15 00:43:35;;;;;;;1.43;1.43;;;;;;;14.55;77.37;99129.94;5090051;28;20286;-70
2023/10/15 00:46:09;;;;;;;1.27;1.20;;;;;;;14.56;77.06;99126.47;5090718;28;20295;-70
2023/10/15 00:48:37;;;;;;;1.87;1.70;;;;;;;14.54;76.79;99121.38;5088036;28;20207;-70
2023/10/15 00:51:08;;;;;;;1.97;1.83;;;;;;;14.47;76.36;99117.47;5089613;28;20205;-70
2023/10/15 00:53:42;;;;;;;2.17;2.07;;;;;;;14.45;76.27;99121.84;5090016;28;20211;-70
2023/10/15 00:56:10;;;;;;;2.17;2.03;;;;;;;14.41;76.23;99120.31;5091269;28;20216;-70
2023/10/15 00:58:53;;;;;;;2.53;2.33;;;;;;;14.27;76.48;99099.53;5090299;28;20206;-70
2023/10/15 01:01:26;;;;;;;1.97;1.87;;;;;;;14.33;76.22;99114.72;5087802;28;20226;-70
2023/10/15 01:03:59;;;;;;;1.37;1.37;;;;;;;14.30;76.33;99114.00;5086971;28;20197;-70
2023/10/15 01:06:31;;;;;;;2.17;2.00;;;;;;;14.29;75.88;99110.59;5090434;28;20213;-70
2023/10/15 01:08:59;;;;;;;3.20;2.10;;;;;;;14.24;76.64;99112.56;5087292;28;20199;-70
2023/10/15 01:11:29;;;;;;;4.93;2.10;;;;;;;14.12;77.49;99116.56;5090131;28;20230;-69
2023/10/15 01:13:56;;;;;;;5.23;2.27;;;;;;;14.07;77.83;99112.56;5090226;28;20238;-70
2023/10/15 01:16:27;;;;;;;1.83;1.83;;;;;;;14.01;78.31;99105.13;5087698;28;20848;-70
2023/10/15 01:18:59;;;;;;;5.43;1.73;;;;;;;14.01;78.72;99107.69;5087928;28;20195;-70
2023/10/15 01:21:29;;;;;;;2.43;2.27;;;;;;;14.01;78.50;99105.97;5087956;28;20215;-70
2023/10/15 01:24:05;;;;;;;2.97;2.13;;;;;;;14.02;78.97;99093.91;5089773;28;20200;-70
2023/10/15 01:26:39;;;;;;;2.23;2.13;;;;;;;13.97;79.91;99090.72;5090059;28;20632;-70
2023/10/15 01:29:15;;;;;;;2.77;2.67;;;;;;;13.99;79.88;99094.06;5089407;28;20289;-70
2023/10/15 01:31:50;;;;;;;2.47;2.37;;;;;;;13.95;80.67;99092.53;5088444;28;20265;-70
2023/10/15 01:34:21;;;;;;;2.30;2.13;;;;;;;13.83;81.22;99075.91;5090803;28;20195;-70
2023/10/15 01:36:48;;;;;;;2.30;2.20;;;;;;;13.96;81.41;99099.34;5088881;28;20196;-69
2023/10/15 01:39:21;;;;;;;2.43;2.33;;;;;;;13.92;81.83;99092.69;5089582;28;20706;-70
2023/10/15 01:41:50;;;;;;;2.00;1.90;;;;;;;13.97;81.77;99106.19;5087285;28;20313;-70
2023/10/15 01:44:19;;;;;;;2.87;2.57;;;;;;;13.96;81.75;99110.50;5089945;28;20257;-70
2023/10/15 01:46:48;;;;;;;7.67;2.50;;;;;;;13.74;80.86;99088.41;5089918;28;20207;-70
2023/10/15 01:49:30;;;;;;;2.03;1.53;;;;;;;13.76;79.95;99112.38;5089418;28;20583;-70
2023/10/15 01:52:04;;;;;;;2.33;2.20;;;;;;;13.73;78.86;99115.09;5087820;28;20207;-70
2023/10/15 01:54:32;;;;;;;1.83;1.73;;;;;;;13.61;77.74;99117.34;5090054;28;20208;-70
2023/10/15 01:57:02;;;;;;;1.27;1.27;;;;;;;13.42;77.06;99113.09;5090039;28;20231;-70
2023/10/15 01:59:38;;;;;;;1.60;1.50;;;;;;;13.36;77.10;99121.13;5089986;28;20195;-70
2023/10/15 02:02:08;;;;;;;2.07;1.97;;;;;;;13.24;77.93;99119.94;5087789;28;20281;-70
2023/10/15 02:04:42;;;;;;;1.73;1.73;;;;;;;13.15;78.34;99115.19;5089156;28;20218;-69
2023/10/15 02:07:12;;;;;;;2.03;1.73;;;;;;;13.16;79.02;99106.56;5088954;28;20320;-70
2023/10/15 02:09:39;;;;;;;2.13;2.03;;;;;;;13.12;79.81;99099.88;5089879;28;20203;-70
2023/10/15 02:12:08;;;;;;;1.17;1.17;;;;;;;13.16;80.13;99098.84;5086957;28;20206;-70
2023/10/15 02:14:34;;;;;;;3.10;2.97;;;;;;;13.16;80.02;99101.44;5087043;28;20925;-70
2023/10/15 02:17:06;;;;;;;1.17;1.17;;;;;;;13.21;80.77;99108.94;5089051;28;20248;-70
2023/10/15 02:19:40;;;;;;;1.60;1.50;;;;;;;13.12;81.26;99097.31;5088842;28;20285;-70
2023/10/15 02:22:07;;;;;;;2.10;2.00;;;;;;;13.15;81.35;99104.91;5088885;28;20226;-70
2023/10/15 02:24:34;;;;;;;2.30;1.70;;;;;;;13.06;81.73;99085.53;5088414;28;20648;-70
2023/10/15 02:27:05;;;;;;;1.70;1.60;;;;;;;13.21;81.26;99099.50;5089429;28;20235;-70
2023/10/15 02:29:36;;;;;;;1.50;1.50;;;;;;;13.20;82.03;99097.81;5088802;28;20987;-69
2023/10/15 02:32:20;;;;;;;1.43;1.43;;;;;;;13.10;81.99;99086.25;5088983;28;20611;-70
2023/10/15 02:34:50;;;;;;;1.87;1.77;;;;;;;13.09;82.34;99087.16;5088775;28;20195;-70
2023/10/15 02:37:18;;;;;;;2.40;2.30;;;;;;;13.13;82.38;99081.81;5089022;28;20212;-70
2023/10/15 02:39:50;;;;;;;4.57;2.07;;;;;;;13.17;83.16;99089.41;5088833;28;20590;-70
2023/10/15 02:42:17;;;;;;;2.50;2.30;;;;;;;13.20;82.76;99092.66;5087272;28;20207;-69
2023/10/15 02:44:46;;;;;;;3.27;3.07;;;;;;;13.08;82.86;99073.47;5088294;28;20211;-70
2023/10/15 02:47:28;;;;;;;1.83;1.80;;;;;;;13.20;82.86;99087.53;5086308;28;20260;-70
2023/10/15 02:50:00;;;;;;;1.43;1.43;;;;;;;13.18;82.04;99083.34;5088068;28;20678;-69
2023/10/15 02:52:35;;;;;;;1.63;1.63;;;;;;;13.17;82.56;99079.94;5086208;28;20203;-70
2023/10/15 02:55:07;;;;;;;1.57;1.57;;;;;;;13.13;82.77;99080.97;5088382;28;20198;-69
2023/10/15 02:57:38;;;;;;;2.67;1.73;;;;;;;13.12;82.51;99081.88;5087412;28;20213;-70
2023/10/15 03:00:13;;;;;;;2.10;1.90;;;;;;;13.14;82.72;99082.66;5088669;28;20788;-70
2023/10/15 03:02:44;;;;;;;2.20;2.10;;;;;;;13.14;82.59;99075.78;5088975;28;20207;-70
2023/10/15 03:05:14;;;;;;;1.40;1.37;;;;;;;13.17;82.69;99071.38;5088154;28;20226;-69
2023/10/15 03:07:43;;;;;;;2.37;2.20;;;;;;;13.17;82.45;99077.38;5087164;28;20215;-69
2023/10/15 03:10:12;;;;;;;1.57;1.47;;;;;;;13.15;82.22;99081.72;5086439;28;20199;-70
2023/10/15 03:12:43;;;;;;;1.93;1.90;;;;;;;13.12;81.98;99084.44;5088697;28;20192;-69
2023/10/15 03:15:15;;;;;;;1.57;1.40;;;;;;;13.06;82.14;99077.81;5088580;28;20209;-69
2023/10/15 03:17:43;;;;;;;2.03;1.70;;;;;;;13.07;81.46;99078.66;5087019;28;20284;-70
2023/10/15 03:20:27;;;;;;;1.50;1.40;;;;;;;13.05;81.48;99072.75;5088979;28;20199;-69
2023/10/15 03:23:00;;;;;;;2.00;1.90;;;;;;;13.04;80.95;99076.22;5088289;28;20235;-69
2023/10/15 03:25:33;;;;;;;1.70;1.57;;;;;;;12.99;80.89;99067.84;5088139;28;20229;-69
2023/10/15 03:28:00;;;;;;;1.93;1.83;;;;;;;12.97;80.97;99070.53;5086947;28;20686;-69
2023/10/15 03:30:33;;;;;;;1.47;1.43;;;;;;;12.96;80.81;99062.84;5087151;28;20199;-70
2023/10/15 03:33:00;;;;;;;1.30;1.30;;;;;;;12.95;81.47;99058.63;5087848;28;20248;-69
2023/10/15 03:35:32;;;;;;;1.30;1.30;;;;;;;12.92;81.63;99061.34;5088628;28;20195;-70
2023/10/15 03:38:04;;;;;;;1.60;1.60;;;;;;;12.88;82.48;99065.78;5088733;28;20715;-69
2023/10/15 03:40:32;;;;;;;1.40;1.30;;;;;;;12.86;82.50;99061.63;5087063;28;20219;-69
2023/10/15 03:43:06;;;;;;;1.73;1.63;;;;;;;12.82;82.79;99060.09;5086676;28;20203;-70
2023/10/15 03:45:50;;;;;;;1.10;1.10;;;;;;;12.82;83.38;99060.09;5088570;28;20199;-70
2023/10/15 03:48:18;;;;;;;2.50;1.80;;;;;;;12.79;83.71;99055.91;5087720;28;20645;-69
2023/10/15 03:50:54;;;;;;;2.27;2.17;;;;;;;12.79;84.29;99050.78;5087983;28;20781;-69
2023/10/15 03:53:22;;;;;;;2.27;2.07;;;;;;;12.59;84.23;99017.38;5085385;28;20635;-69
2023/10/15 03:55:50;;;;;;;1.77;1.67;;;;;;;12.76;84.75;99043.19;5088989;28;20206;-70
2023/10/15 03:58:18;;;;;;;2.60;2.37;;;;;;;12.71;85.70;99047.69;5087612;28;20209;-69
2023/10/15 04:00:48;;;;;;;1.87;1.77;;;;;;;12.69;86.26;99041.78;5087303;28;20756;-69
2023/10/15 04:03:22;;;;;;;1.73;1.73;;;;;;;12.70;86.57;99050.34;5090822;28;20290;-70
2023/10/15 04:05:53;;;;;;;1.30;1.30;;;;;;;12.71;86.54;99046.84;5090495;28;20204;-69
2023/10/15 04:08:21;;;;;;;2.70;1.43;;;;;;;12.71;86.42;99041.72;5090230;28;20204;-70
2023/10/15 04:10:56;;;;;;;5.70;1.57;;;;;;;12.71;86.53;99041.72;5088962;28;20200;-70
2023/10/15 04:13:23;;;;;;;1.90;1.80;;;;;;;12.73;86.68;99047.63;5089615;28;20195;-70
2023/10/15 04:15:55;;;;;;;1.57;1.57;;;;;;;12.70;87.60;99040.06;5090914;28;20660;-69
2023/10/15 04:18:23;;;;;;;1.77;1.77;;;;;;;12.70;87.33;99040.06;5091982;28;20199;-70
2023/10/15 04:20:50;;;;;;;1.60;1.60;;;;;;;12.68;88.16;99036.69;5089809;28;20313;-70
2023/10/15 04:23:30;;;;;;;1.37;1.37;;;;;;;12.60;88.75;99025.00;5090767;28;20567;-70
2023/10/15 04:25:59;;;;;;;1.40;1.40;;;;;;;12.58;89.69;99031.97;5091019;28;20593;-69
2023/10/15 04:28:26;;;;;;;1.33;1.33;;;;;;;12.58;90.14;99031.97;5091354;28;20231;-70
2023/10/15 04:30:56;;;;;;;1.87;1.77;;;;;;;12.57;90.19;99035.44;5090672;28;20203;-70
2023/10/15 04:33:25;;;;;;;1.80;1.40;;;;;;;12.62;90.00;99033.50;5089852;28;20203;-70
2023/10/15 04:35:52;;;;;;;2.00;1.90;;;;;;;12.63;89.70;99037.72;5090818;28;20733;-69
2023/10/15 04:38:22;;;;;;;1.77;1.77;;;;;;;12.61;89.86;99034.41;5089530;28;20237;-69
2023/10/15 04:41:00;;;;;;;2.20;2.20;;;;;;;12.57;89.80;99035.44;5089964;28;20219;-70
2023/10/15 04:43:27;;;;;;;1.60;1.50;;;;;;;12.59;90.30;99028.50;5088749;28;20203;-70
2023/10/15 04:45:57;;;;;;;1.50;1.50;;;;;;;12.58;90.11;99020.84;5090358;28;20678;-69
2023/10/15 04:48:27;;;;;;;1.67;1.63;;;;;;;12.67;90.55;99030.72;5090562;28;20693;-69
2023/10/15 04:50:54;;;;;;;2.40;1.50;;;;;;;12.69;90.38;99023.78;5090790;28;20207;-70
2023/10/15 04:53:26;;;;;;;1.17;1.17;;;;;;;12.69;90.57;99028.09;5091028;28;20253;-69
2023/10/15 04:55:54;;;;;;;1.80;1.70;;;;;;;12.73;90.47;99027.06;5087056;28;20200;-69
2023/10/15 04:58:20;;;;;;;1.80;1.70;;;;;;;12.74;91.18;99021.00;5089331;28;20694;-69
2023/10/15 05:00:48;;;;;;;2.90;1.40;;;;;;;12.73;91.27;99019.34;5090340;28;20222;-70
2023/10/15 05:03:17;;;;;;;2.07;2.00;;;;;;;12.74;91.44;99026.13;5089376;28;20260;-69
2023/10/15 05:05:44;;;;;;;1.53;1.53;;;;;;;12.74;91.24;99021.00;5090333;28;20260;-69
2023/10/15 05:08:12;;;;;;;2.07;1.97;;;;;;;12.72;91.94;99020.25;5090173;28;20260;-69
2023/10/15 05:10:44;;;;;;;1.40;1.40;;;;;;;12.68;91.78;99016.13;5088573;28;20199;-69
2023/10/15 05:13:11;;;;;;;2.17;2.03;;;;;;;12.67;92.64;99024.75;5090191;28;20560;-69
2023/10/15 05:15:38;;;;;;;1.80;1.70;;;;;;;12.67;92.58;99015.28;5090379;28;20199;-69
2023/10/15 05:18:05;;;;;;;1.10;1.10;;;;;;;12.70;92.39;99024.63;5088800;28;20204;-70
2023/10/15 05:20:36;;;;;;;1.40;1.40;;;;;;;12.71;92.33;99031.41;5089200;28;20691;-70
2023/10/15 05:23:03;;;;;;;1.13;1.13;;;;;;;12.71;93.01;99021.13;5088915;28;20602;-69
2023/10/15 05:25:30;;;;;;;1.63;1.63;;;;;;;12.73;93.39;99022.72;5090362;28;20294;-69
2023/10/15 05:27:59;;;;;;;2.57;2.37;;;;;;;12.75;93.62;99022.66;5090293;28;20282;-70
2023/10/15 05:30:27;;;;;;;2.07;1.80;;;;;;;12.73;93.90;99029.63;5088164;28;20199;-69
2023/10/15 05:32:54;;;;;;;2.30;1.60;;;;;;;12.70;94.58;99029.78;5087408;28;20659;-69
2023/10/15 05:35:20;;;;;;;2.70;1.43;;;;;;;12.70;94.72;99019.50;5090231;28;20208;-69
2023/10/15 05:37:49;;;;;;;1.83;1.73;;;;;;;12.73;94.90;99016.78;5089712;28;20218;-69
2023/10/15 05:40:16;;;;;;;2.20;2.10;;;;;;;12.75;95.29;99009.81;5086333;28;20675;-70
2023/10/15 05:42:43;;;;;;;1.60;1.60;;;;;;;12.80;95.66;99015.56;5088998;28;20257;-70
2023/10/15 05:45:14;;;;;;;1.87;1.80;;;;;;;12.80;96.23;99018.13;5086775;28;20203;-70
2023/10/15 05:47:43;;;;;;;2.30;1.37;;;;;;;12.83;96.51;99020.56;5089743;28;20202;-70
2023/10/15 05:50:10;;;;;;;2.20;2.07;;;;;;;12.77;96.61;98995.13;5089097;28;20227;-69
2023/10/15 05:52:37;;;;;;;1.20;1.20;;;;;;;12.90;96.91;99007.38;5088996;28;20567;-70
2023/10/15 05:55:06;;;;;;;1.40;1.40;;;;;;;13.03;96.73;99005.06;5087542;28;20229;-69
2023/10/15 05:57:34;;;;;;;2.60;1.30;;;;;;;13.12;96.63;99004.66;5081703;28;20204;-70
2023/10/15 06:00:17;;;;;;;10.60;2.30;;;;;;;13.19;96.74;99003.47;5088105;28;20234;-69
2023/10/15 06:02:44;;;;;;;2.27;2.10;;;;;;;13.24;96.16;99001.53;5088944;28;20662;-69
2023/10/15 06:05:13;;;;;;;2.33;2.23;;;;;;;13.30;96.40;99001.25;5088746;28;20206;-70
2023/10/15 06:07:40;;;;;;;1.13;1.13;;;;;;;13.39;96.28;99000.81;5086720;28;20223;-69
2023/10/15 06:10:09;;;;;;;2.93;2.77;;;;;;;13.49;96.32;98999.47;5087961;28;20317;-70
2023/10/15 06:12:36;;;;;;;1.80;1.80;;;;;;;13.56;96.61;99005.97;5088465;28;20253;-69
2023/10/15 06:15:04;;;;;;;1.50;1.50;;;;;;;13.66;96.83;99001.22;5085788;28;20222;-69
2023/10/15 06:17:31;;;;;;;1.20;1.20;;;;;;;13.82;96.21;99006.44;5089341;28;20222;-69
2023/10/15 06:19:57;;;;;;;1.43;1.43;;;;;;;13.92;96.04;98998.19;5087504;28;20202;-69
2023/10/15 06:22:25;;;;;;;3.27;1.77;;;;;;;13.99;95.59;98996.94;5083670;28;20223;-69
2023/10/15 06:24:52;;;;;;;2.23;2.03;;;;;;;14.10;95.88;98999.00;5087321;28;20885;-69
2023/10/15 06:27:20;;;;;;;2.33;2.23;;;;;;;14.19;95.70;98999.34;5087984;28;20272;-70
2023/10/15 06:29:47;;;;;;;1.23;1.23;;;;;;;14.31;95.87;99004.81;5088545;28;20207;-70
2023/10/15 06:32:14;;;;;;;1.80;1.70;;;;;;;14.40;95.17;99000.03;5088171;28;20261;-69
2023/10/15 06:34:41;;;;;;;2.13;2.13;;;;;;;14.48;95.29;98997.88;5087579;28;20628;-69
2023/10/15 06:37:08;;;;;;;6.27;2.33;;;;;;;14.58;94.61;98993.06;5087938;28;20207;-69
2023/10/15 06:39:35;;;;;;;9.87;2.57;;;;;;;14.69;93.91;98991.59;5085907;28;20770;-70
2023/10/15 06:42:02;;;;;;;2.87;2.60;;;;;;;14.78;93.46;98990.28;5085945;28;20274;-70
2023/10/15 06:44:30;;;;;;;3.83;3.00;;;;;;;14.94;92.81;98992.84;5087149;28;20207;-69
2023/10/15 06:46:57;;;;;;;4.77;3.40;;;;;;;15.02;91.67;98995.88;5089158;28;20207;-70
2023/10/15 06:49:24;;;;;;;2.73;2.53;;;;;;;15.23;91.34;98990.34;5084435;28;20195;-69
2023/10/15 06:51:52;;;;;;;3.40;2.70;;;;;;;15.35;91.12;98988.81;5088452;28;20194;-70
2023/10/15 06:54:18;;;;;;;3.13;2.93;;;;;;;15.43;90.25;98981.50;5086987;28;20260;-70
2023/10/15 06:56:45;;;;;;;8.83;2.73;;;;;;;15.57;89.35;98986.72;5087892;28;20626;-70
2023/10/15 06:59:12;;;;;;;3.03;2.73;;;;;;;15.72;88.43;98975.53;5088243;28;20209;-69
2023/10/15 07:01:40;;;;;;;5.53;2.63;;;;;;;15.90;87.27;98983.09;5087457;28;20223;-70
2023/10/15 07:04:07;;;;;;;6.30;3.60;;;;;;;16.13;86.76;98985.19;5083160;28;20199;-70
2023/10/15 07:06:34;;;;;;;4.27;3.13;;;;;;;16.38;86.34;98982.78;5083262;28;20199;-69
2023/10/15 07:09:02;;;;;;;3.67;3.37;;;;;;;16.58;85.81;98979.84;5088170;28;20231;-69
2023/10/15 07:11:29;;;;;;;9.07;3.97;;;;;;;16.70;84.24;98950.63;5086700;28;20560;-69
2023/10/15 07:13:56;;;;;;;10.60;4.53;;;;;;;17.05;83.47;98963.13;5089527;28;20195;-69
2023/10/15 07:16:24;;;;;;;4.67;4.33;;;;;;;17.26;83.25;98961.75;5087833;28;20199;-69
2023/10/15 07:18:52;;;;;;;2.60;2.37;;;;;;;17.49;82.01;98962.84;5085892;28;20199;-69
2023/10/15 07:21:19;;;;;;;3.63;2.23;;;;;;;17.69;80.75;98960.66;5088900;28;20226;-69
2023/10/15 07:23:46;;;;;;;2.53;2.43;;;;;;;17.91;78.47;98954.88;5090271;28;20203;-69
2023/10/15 07:26:13;;;;;;;1.80;1.80;;;;;;;18.14;76.36;98961.09;5089177;28;20687;-69
2023/10/15 07:28:39;;;;;;;1.97;1.90;;;;;;;18.33;76.98;98951.13;5088485;28;20223;-69
2023/10/15 07:31:06;;;;;;;1.33;1.33;;;;;;;18.54;73.68;98956.66;5090028;28;20274;-69
2023/10/15 07:33:33;;;;;;;1.90;1.80;;;;;;;18.72;73.45;98950.16;5090028;28;20227;-70
2023/10/15 07:36:02;;;;;;;2.03;1.93;;;;;;;18.93;72.44;98950.41;5093991;28;20197;-69
2023/10/15 07:38:29;;;;;;;3.07;2.50;;;;;;;19.14;71.28;98938.47;5094108;28;20201;-69
2023/10/15 07:40:55;;;;;;;1.37;1.33;;;;;;;19.23;71.13;98932.59;5094224;28;20198;-69
2023/10/15 07:43:22;;;;;;;3.33;1.60;;;;;;;19.48;69.30;98937.72;5094286;28;20697;-69
2023/10/15 07:45:49;;;;;;;2.00;1.90;;;;;;;19.68;68.18;98931.84;5093777;28;20662;-69
2023/10/15 07:48:16;;;;;;;2.53;1.60;;;;;;;19.87;66.28;98934.72;5094044;28;20260;-69
2023/10/15 07:50:45;;;;;;;1.57;1.57;;;;;;;20.07;65.50;98934.97;5091218;28;20205;-69
2023/10/15 07:53:13;;;;;;;2.00;1.90;;;;;;;20.19;65.34;98934.06;5093856;28;20208;-69
2023/10/15 07:55:40;;;;;;;1.90;1.57;;;;;;;20.38;65.13;98922.16;5094017;28;20199;-69
2023/10/15 07:58:09;;;;;;;5.93;1.10;;;;;;;20.55;64.04;98926.00;5093666;28;20207;-70
2023/10/15 08:00:36;;;;;;;1.83;1.73;;;;;;;20.68;62.18;98929.31;5093275;28;20206;-70
2023/10/15 08:03:07;;;;;;;1.80;1.70;;;;;;;20.89;62.74;98924.19;5093055;28;20215;-70
2023/10/15 08:05:36;;;;;;;1.50;1.47;;;;;;;21.04;61.15;98924.72;5093510;28;20204;-69
2023/10/15 08:08:04;;;;;;;1.80;1.70;;;;;;;21.21;60.75;98925.06;5093223;28;20192;-69
2023/10/15 08:10:34;;;;;;;3.60;1.60;;;;;;;21.25;59.67;98920.44;5093795;28;20223;-69
2023/10/15 08:13:01;;;;;;;1.97;1.87;;;;;;;21.41;58.83;98906.03;5093070;28;20198;-69
2023/10/15 08:15:28;;;;;;;1.37;1.37;;;;;;;21.44;58.58;98903.16;5093085;28;20195;-69
2023/10/15 08:17:56;;;;;;;1.63;1.53;;;;;;;21.57;59.14;98905.56;5092966;28;20248;-69
2023/10/15 08:20:23;;;;;;;1.70;1.60;;;;;;;21.72;58.24;98903.47;5093128;28;20226;-69
2023/10/15 08:22:50;;;;;;;2.77;1.77;;;;;;;21.88;58.06;98898.59;5093303;28;20272;-69
2023/10/15 08:25:21;;;;;;;4.23;1.80;;;;;;;22.01;57.62;98903.66;5093119;28;20631;-69
2023/10/15 08:27:50;;;;;;;1.77;1.77;;;;;;;22.14;57.47;98893.81;5093471;28;20750;-70
2023/10/15 08:30:17;;;;;;;2.07;1.57;;;;;;;22.27;57.33;98900.47;5092950;28;20203;-70
2023/10/15 08:32:46;;;;;;;1.87;1.77;;;;;;;22.20;56.29;98882.84;5093168;28;20195;-69
2023/10/15 08:35:14;;;;;;;1.33;1.30;;;;;;;22.28;55.52;98896.09;5091751;28;20207;-69
2023/10/15 08:37:41;;;;;;;8.40;4.33;;;;;;;22.37;54.93;98895.28;5092327;28;20286;-69
2023/10/15 08:40:15;;;;;;;3.77;3.17;;;;;;;22.47;55.59;98893.53;5092512;28;20200;-69
2023/10/15 08:42:48;;;;;;;3.60;3.20;;;;;;;22.69;54.28;98884.66;5091616;28;20273;-69
2023/10/15 08:45:21;;;;;;;2.93;2.47;;;;;;;22.77;55.25;98885.66;5092165;28;20241;-69
2023/10/15 08:47:50;;;;;;;1.27;1.27;;;;;;;22.81;54.11;98888.84;5092325;28;20205;-69
2023/10/15 08:50:20;;;;;;;1.70;1.60;;;;;;;22.90;54.01;98878.41;5092754;28;20203;-69
2023/10/15 08:52:47;;;;;;;1.93;1.83;;;;;;;22.97;54.07;98878.66;5093637;28;20630;-69
2023/10/15 08:55:15;;;;;;;1.60;1.50;;;;;;;23.11;52.88;98872.19;5092437;28;20206;-69
2023/10/15 08:57:42;;;;;;;1.43;1.33;;;;;;;23.10;51.19;98868.78;5092597;28;20199;-69
2023/10/15 09:00:25;;;;;;;1.77;1.67;;;;;;;23.20;51.40;98858.31;5092740;28;20195;-69
2023/10/15 09:02:56;;;;;;;1.47;1.47;;;;;;;23.21;52.23;98845.06;5090515;28;20262;-69
2023/10/15 09:05:23;;;;;;;3.10;1.67;;;;;;;23.45;52.01;98853.34;5091570;28;20282;-71
2023/10/15 09:07:51;;;;;;;2.67;1.80;;;;;;;23.47;51.71;98842.72;5089980;28;20223;-70
2023/10/15 09:10:18;;;;;;;1.47;1.37;;;;;;;23.56;51.03;98843.66;5090039;28;20579;-69
2023/10/15 09:12:44;;;;;;;2.30;2.10;;;;;;;23.62;50.99;98838.69;5092725;28;20637;-69
2023/10/15 09:15:16;;;;;;;2.60;2.33;;;;;;;23.78;50.25;98833.69;5092268;28;20670;-69
2023/10/15 09:17:45;;;;;;;1.60;1.60;;;;;;;23.95;49.73;98835.56;5092505;28;20755;-69
2023/10/15 09:20:13;;;;;;;2.53;2.13;;;;;;;24.04;49.87;98833.84;5092251;28;20238;-69
2023/10/15 09:22:47;;;;;;;1.90;1.80;;;;;;;24.20;49.62;98830.66;5092082;28;20280;-69
2023/10/15 09:25:14;;;;;;;1.70;1.60;;;;;;;24.30;49.04;98839.28;5092401;28;20195;-70
2023/10/15 09:27:46;;;;;;;1.60;1.50;;;;;;;24.33;48.47;98839.00;5091884;28;20290;-71
2023/10/15 09:30:18;;;;;;;2.97;1.50;;;;;;;24.49;49.17;98823.47;5092084;28;20230;-71
2023/10/15 09:32:47;;;;;;;1.17;1.17;;;;;;;24.49;48.71;98826.09;5092026;28;20250;-70
2023/10/15 09:35:15;;;;;;;2.00;1.90;;;;;;;24.56;49.19;98821.88;5091907;28;20210;-71
2023/10/15 09:37:42;;;;;;;2.60;1.87;;;;;;;24.66;48.21;98814.78;5092029;28;20625;-70
2023/10/15 09:40:18;;;;;;;2.10;1.40;;;;;;;24.72;47.31;98816.00;5091830;28;20211;-71
2023/10/15 09:42:46;;;;;;;2.57;2.30;;;;;;;24.60;47.70;98811.91;5091410;28;20244;-69
2023/10/15 09:45:18;;;;;;;3.83;2.43;;;;;;;24.66;47.03;98804.28;5091837;28;20674;-70
2023/10/15 09:47:48;;;;;;;1.20;1.20;;;;;;;24.59;46.91;98808.47;5091277;28;20743;-71
2023/10/15 09:50:19;;;;;;;1.93;1.60;;;;;;;24.58;47.21;98785.88;5091956;28;20210;-70
2023/10/15 09:52:55;;;;;;;1.37;1.10;;;;;;;24.70;47.33;98784.66;5091524;28;20195;-69
2023/10/15 09:55:23;;;;;;;1.93;1.73;;;;;;;24.80;47.12;98779.34;5091684;28;20301;-70
2023/10/15 09:57:54;;;;;;;1.50;1.40;;;;;;;24.95;46.73;98780.47;5091299;28;20200;-69
2023/10/15 10:00:32;;;;;;;1.20;1.20;;;;;;;25.08;44.87;98781.75;5091476;28;20234;-70
2023/10/15 10:03:14;;;;;;;1.33;1.33;;;;;;;25.12;46.68;98773.56;5091414;28;20601;-70
2023/10/15 10:05:56;;;;;;;1.33;1.30;;;;;;;25.33;45.50;98771.44;5090959;28;20557;-70
2023/10/15 10:08:38;;;;;;;1.27;1.27;;;;;;;25.56;45.81;98772.56;5091171;28;20567;-70
2023/10/15 10:11:23;;;;;;;2.00;1.90;;;;;;;25.68;44.04;98766.06;5091473;28;20207;-70
2023/10/15 10:14:15;;;;;;;1.23;1.23;;;;;;;25.71;43.27;98765.75;5091222;28;20196;-71
2023/10/15 10:16:42;;;;;;;1.47;1.37;;;;;;;25.66;43.76;98762.75;5090738;28;20202;-70
2023/10/15 10:19:10;;;;;;;1.73;1.63;;;;;;;25.86;43.93;98752.84;5091290;28;20195;-70
2023/10/15 10:21:38;;;;;;;1.47;1.37;;;;;;;26.01;43.37;98744.19;5091138;28;20199;-70
2023/10/15 10:24:09;;;;;;;1.50;1.40;;;;;;;26.20;43.48;98734.44;5090866;28;20222;-70
2023/10/15 10:26:39;;;;;;;1.67;1.57;;;;;;;26.33;41.35;98732.16;5091297;28;20272;-71
2023/10/15 10:29:09;;;;;;;1.33;1.23;;;;;;;26.31;41.54;98732.31;5090984;28;20192;-70
2023/10/15 10:31:39;;;;;;;2.60;1.57;;;;;;;26.40;43.61;98704.22;5091120;28;20289;-70
2023/10/15 10:34:05;;;;;;;2.10;1.33;;;;;;;26.55;41.87;98721.00;5090980;28;20230;-70
2023/10/15 10:36:39;;;;;;;1.00;1.00;;;;;;;26.51;41.11;98706.53;5091052;28;20207;-70
2023/10/15 10:39:14;;;;;;;1.97;1.87;;;;;;;26.67;40.78;98713.59;5090602;28;20621;-70
2023/10/15 10:41:42;;;;;;;1.67;1.57;;;;;;;26.66;40.75;98701.47;5090960;28;20219;-70
2023/10/15 10:44:10;;;;;;;1.30;1.30;;;;;;;26.57;40.28;98711.16;5090832;28;20682;-70
2023/10/15 10:46:44;;;;;;;1.10;1.07;;;;;;;26.57;41.25;98695.38;5091019;28;20206;-70
2023/10/15 10:49:14;;;;;;;1.03;1.03;;;;;;;26.67;42.37;98693.41;5090807;28;20710;-70
2023/10/15 10:52:04;;;;;;;1.43;1.33;;;;;;;26.87;42.09;98701.81;5090882;28;20199;-70
2023/10/15 10:54:31;;;;;;;2.00;1.73;;;;;;;26.91;41.31;98687.34;5090876;28;20195;-70
2023/10/15 10:57:06;;;;;;;4.30;1.40;;;;;;;27.11;41.40;98699.94;5090872;28;20210;-70
2023/10/15 10:59:35;;;;;;;1.10;1.03;;;;;;;27.22;40.58;98690.06;5092884;28;20560;-70
2023/10/15 11:02:02;;;;;;;1.00;1.00;;;;;;;27.29;40.36;98691.03;5090832;28;20234;-70
2023/10/15 11:04:28;;;;;;;2.43;1.47;;;;;;;27.34;39.11;98681.63;5090579;28;20218;-70
2023/10/15 11:06:58;;;;;;;1.33;1.07;;;;;;;27.36;39.40;98676.22;5088967;28;20210;-70
2023/10/15 11:09:25;;;;;;;1.47;1.47;;;;;;;27.41;40.31;98679.97;5092049;28;20199;-70
2023/10/15 11:11:53;;;;;;;1.53;1.50;;;;;;;27.46;39.92;98669.78;5094824;28;20206;-71
2023/10/15 11:14:23;;;;;;;1.10;1.10;;;;;;;27.49;39.22;98663.34;5094545;28;20244;-70
2023/10/15 11:16:51;;;;;;;1.33;1.23;;;;;;;27.55;40.11;98660.03;5094913;28;20226;-71
2023/10/15 11:19:20;;;;;;;1.20;1.20;;;;;;;27.50;38.29;98651.81;5094410;28;20203;-70
2023/10/15 11:21:48;;;;;;;4.40;1.27;;;;;;;27.57;39.26;98655.41;5093629;28;20222;-70
2023/10/15 11:24:36;;;;;;;1.80;1.40;;;;;;;27.66;40.22;98651.72;5093765;28;20233;-70
2023/10/15 11:27:29;;;;;;;1.00;0.90;;;;;;;27.71;39.36;98659.94;5094469;28;20199;-71
2023/10/15 11:29:56;;;;;;;5.87;1.53;;;;;;;27.76;39.47;98647.06;5094551;28;20655;-70
2023/10/15 11:32:24;;;;;;;2.20;1.33;;;;;;;27.89;38.33;98642.06;5094212;28;20202;-70
2023/10/15 11:34:51;;;;;;;1.57;1.47;;;;;;;27.91;38.11;98645.34;5094578;28;20195;-70
2023/10/15 11:37:19;;;;;;;1.53;1.43;;;;;;;27.94;37.59;98637.09;5094421;28;20777;-70
2023/10/15 11:39:48;;;;;;;1.10;1.10;;;;;;;27.92;37.97;98641.72;5092278;28;20875;-65
2023/10/15 11:42:18;;;;;;;1.37;1.27;;;;;;;28.13;38.10;98631.41;5094093;28;20295;-65
2023/10/15 11:44:46;;;;;;;1.55;1.45;;;;;;;28.19;37.73;98626.41;5091523;28;20222;-67
2023/10/15 11:47:19;;;;;;;1.57;1.53;;;;;;;28.32;37.52;98627.47;5092754;28;20568;-62